createdAt,value
2022-10-01T00:00:26.615Z,975.16
2022-10-01T00:01:26.727Z,975.13
2022-10-01T00:02:26.660Z,975.11
2022-10-01T00:03:26.584Z,975.03
2022-10-01T00:04:26.573Z,975.07
2022-10-01T00:05:26.564Z,975.09
2022-10-01T00:06:26.557Z,975.09
2022-10-01T00:07:27.546Z,975.02
2022-10-01T00:08:26.532Z,975.04
2022-10-01T00:09:26.522Z,975.03
2022-10-01T00:10:26.511Z,974.99
2022-10-01T00:11:26.509Z,974.97
2022-10-01T00:12:26.486Z,974.93
2022-10-01T00:13:26.483Z,974.95
2022-10-01T00:14:26.468Z,974.95
2022-10-01T00:15:26.458Z,974.81
2022-10-01T00:16:26.503Z,974.82
2022-10-01T00:17:26.470Z,974.81
2022-10-01T00:18:26.435Z,974.78
2022-10-01T00:19:26.417Z,974.82
2022-10-01T00:20:26.408Z,974.75
2022-10-01T00:21:26.412Z,974.83
2022-10-01T00:22:26.389Z,974.76
2022-10-01T00:23:26.377Z,974.79
2022-10-01T00:24:26.365Z,974.76
2022-10-01T00:25:26.357Z,974.69
2022-10-01T00:26:26.357Z,974.70
2022-10-01T00:27:26.343Z,974.62
2022-10-01T00:28:26.416Z,974.61
2022-10-01T00:29:26.312Z,974.66
2022-10-01T00:30:26.303Z,974.61
2022-10-01T00:31:26.429Z,974.64
2022-10-01T00:32:26.289Z,974.66
2022-10-01T00:33:26.271Z,974.61
2022-10-01T00:34:26.262Z,974.58
2022-10-01T00:35:26.252Z,974.60
2022-10-01T00:36:26.249Z,974.56
2022-10-01T00:37:26.231Z,974.52
2022-10-01T00:38:26.223Z,974.58
2022-10-01T00:39:26.208Z,974.57
2022-10-01T00:40:26.204Z,974.54
2022-10-01T00:41:26.192Z,974.54
2022-10-01T00:42:27.180Z,974.52
2022-10-01T00:43:26.173Z,974.55
2022-10-01T00:44:26.163Z,974.48
2022-10-01T00:45:26.231Z,974.55
2022-10-01T00:46:26.151Z,974.42
2022-10-01T00:47:26.131Z,974.44
2022-10-01T00:48:26.121Z,974.45
2022-10-01T00:49:26.115Z,974.46
2022-10-01T00:50:26.101Z,974.40
2022-10-01T00:51:26.101Z,974.39
2022-10-01T00:52:26.106Z,974.38
2022-10-01T00:53:26.069Z,974.41
2022-10-01T00:54:26.065Z,974.36
2022-10-01T00:55:26.051Z,974.28
2022-10-01T00:56:26.054Z,974.33
2022-10-01T00:57:26.031Z,974.31
2022-10-01T00:58:26.020Z,974.33
2022-10-01T00:59:26.007Z,974.36
2022-10-01T01:00:26.004Z,974.32
2022-10-01T01:01:26.047Z,974.33
2022-10-01T01:02:26.005Z,974.25
2022-10-01T01:03:25.979Z,974.32
2022-10-01T01:04:25.969Z,974.25
2022-10-01T01:05:25.952Z,974.25
2022-10-01T01:06:25.955Z,974.23
2022-10-01T01:07:25.930Z,974.24
2022-10-01T01:08:25.919Z,974.23
2022-10-01T01:09:25.910Z,974.19
2022-10-01T01:10:25.904Z,974.22
2022-10-01T01:11:25.902Z,974.20
2022-10-01T01:12:25.881Z,974.20
2022-10-01T01:13:25.873Z,974.21
2022-10-01T01:14:25.865Z,974.21
2022-10-01T01:15:25.851Z,974.16
2022-10-01T01:16:25.853Z,974.22
2022-10-01T01:17:25.825Z,974.20
2022-10-01T01:18:25.814Z,974.17
2022-10-01T01:19:25.803Z,974.14
2022-10-01T01:20:25.797Z,974.14
2022-10-01T01:21:25.868Z,974.15
2022-10-01T01:22:25.774Z,974.11
2022-10-01T01:23:25.766Z,974.08
2022-10-01T01:24:25.751Z,974.11
2022-10-01T01:25:25.744Z,974.07
2022-10-01T01:26:25.744Z,974.08
2022-10-01T01:27:25.739Z,974.04
2022-10-01T01:28:25.762Z,974.04
2022-10-01T01:29:26.797Z,974.05
2022-10-01T01:30:25.700Z,974.03
2022-10-01T01:31:25.724Z,974.06
2022-10-01T01:32:25.666Z,974.00
2022-10-01T01:33:25.660Z,974.07
2022-10-01T01:34:25.648Z,974.01
2022-10-01T01:35:25.643Z,973.95
2022-10-01T01:36:25.658Z,973.91
2022-10-01T01:37:25.620Z,973.93
2022-10-01T01:38:25.607Z,973.84
2022-10-01T01:39:25.600Z,973.88
2022-10-01T01:40:25.590Z,973.81
2022-10-01T01:41:25.585Z,973.77
2022-10-01T01:42:26.571Z,973.83
2022-10-01T01:43:25.554Z,973.86
2022-10-01T01:44:25.548Z,973.73
2022-10-01T01:45:25.552Z,973.73
2022-10-01T01:46:25.547Z,973.70
2022-10-01T01:47:25.521Z,973.66
2022-10-01T01:48:25.514Z,973.73
2022-10-01T01:49:25.502Z,973.63
2022-10-01T01:50:25.495Z,973.64
2022-10-01T01:51:25.493Z,973.63
2022-10-01T01:52:25.468Z,973.65
2022-10-01T01:53:25.460Z,973.64
2022-10-01T01:54:25.459Z,973.63
2022-10-01T01:55:25.435Z,973.64
2022-10-01T01:56:25.443Z,973.62
2022-10-01T01:57:25.418Z,973.59
2022-10-01T01:58:25.404Z,973.67
2022-10-01T01:59:25.402Z,973.57
2022-10-01T02:00:25.385Z,973.66
2022-10-01T02:01:25.437Z,973.67
2022-10-01T02:02:25.435Z,973.66
2022-10-01T02:03:25.358Z,973.62
2022-10-01T02:04:25.351Z,973.65
2022-10-01T02:05:25.342Z,973.65
2022-10-01T02:06:25.330Z,973.68
2022-10-01T02:07:25.335Z,973.64
2022-10-01T02:08:25.314Z,973.60
2022-10-01T02:09:25.301Z,973.65
2022-10-01T02:10:25.292Z,973.61
2022-10-01T02:11:25.287Z,973.61
2022-10-01T02:12:25.287Z,973.60
2022-10-01T02:13:25.266Z,973.62
2022-10-01T02:14:25.258Z,973.67
2022-10-01T02:15:25.249Z,973.61
2022-10-01T02:16:25.320Z,973.65
2022-10-01T02:17:25.242Z,973.61
2022-10-01T02:18:25.218Z,973.62
2022-10-01T02:19:25.203Z,973.61
2022-10-01T02:20:25.200Z,973.58
2022-10-01T02:21:25.187Z,973.61
2022-10-01T02:22:25.192Z,973.59
2022-10-01T02:23:25.166Z,973.60
2022-10-01T02:24:25.160Z,973.58
2022-10-01T02:25:25.146Z,973.59
2022-10-01T02:26:25.137Z,973.63
2022-10-01T02:27:25.139Z,973.63
2022-10-01T02:28:25.143Z,973.63
2022-10-01T02:29:25.110Z,973.54
2022-10-01T02:30:25.102Z,973.55
2022-10-01T02:31:25.160Z,973.60
2022-10-01T02:32:25.086Z,973.57
2022-10-01T02:33:25.069Z,973.52
2022-10-01T02:34:25.058Z,973.51
2022-10-01T02:35:25.047Z,973.49
2022-10-01T02:36:25.041Z,973.52
2022-10-01T02:37:25.041Z,973.57
2022-10-01T02:38:25.021Z,973.54
2022-10-01T02:39:25.006Z,973.43
2022-10-01T02:40:24.995Z,973.47
2022-10-01T02:41:24.988Z,973.48
2022-10-01T02:42:24.989Z,973.42
2022-10-01T02:43:24.970Z,973.40
2022-10-01T02:44:24.962Z,973.39
2022-10-01T02:45:24.952Z,973.41
2022-10-01T02:46:24.938Z,973.39
2022-10-01T02:47:24.945Z,973.39
2022-10-01T02:48:24.925Z,973.29
2022-10-01T02:49:29.811Z,973.27
2022-10-01T02:50:26.905Z,973.36
2022-10-01T02:51:24.892Z,973.25
2022-10-01T02:52:24.896Z,973.19
2022-10-01T02:53:24.879Z,973.19
2022-10-01T02:54:24.862Z,973.19
2022-10-01T02:55:24.851Z,973.12
2022-10-01T02:56:24.841Z,973.09
2022-10-01T02:57:24.844Z,973.09
2022-10-01T02:58:24.824Z,973.03
2022-10-01T02:59:24.815Z,972.98
2022-10-01T03:00:24.800Z,973.05
2022-10-01T03:01:24.814Z,972.97
2022-10-01T03:02:24.800Z,972.95
2022-10-01T03:03:24.777Z,972.89
2022-10-01T03:04:24.757Z,972.82
2022-10-01T03:05:24.754Z,972.89
2022-10-01T03:06:24.743Z,972.91
2022-10-01T03:07:24.746Z,972.89
2022-10-01T03:08:24.721Z,972.86
2022-10-01T03:09:24.711Z,972.79
2022-10-01T03:10:24.698Z,972.71
2022-10-01T03:11:24.692Z,972.78
2022-10-01T03:12:24.691Z,972.70
2022-10-01T03:13:24.669Z,972.67
2022-10-01T03:14:24.663Z,972.69
2022-10-01T03:15:24.646Z,972.65
2022-10-01T03:16:24.683Z,972.66
2022-10-01T03:17:24.637Z,972.64
2022-10-01T03:18:24.620Z,972.62
2022-10-01T03:19:24.611Z,972.58
2022-10-01T03:20:24.606Z,972.52
2022-10-01T03:21:24.592Z,972.59
2022-10-01T03:22:24.590Z,972.48
2022-10-01T03:23:24.572Z,972.48
2022-10-01T03:24:24.559Z,972.42
2022-10-01T03:25:24.553Z,972.42
2022-10-01T03:26:24.542Z,972.37
2022-10-01T03:27:24.541Z,972.27
2022-10-01T03:28:24.550Z,972.37
2022-10-01T03:29:24.509Z,972.32
2022-10-01T03:30:24.500Z,972.23
2022-10-01T03:31:24.551Z,972.32
2022-10-01T03:32:24.497Z,972.25
2022-10-01T03:33:24.468Z,972.24
2022-10-01T03:34:24.464Z,972.25
2022-10-01T03:35:24.454Z,972.27
2022-10-01T03:36:24.440Z,972.27
2022-10-01T03:37:24.446Z,972.28
2022-10-01T03:38:24.416Z,972.25
2022-10-01T03:39:24.407Z,972.27
2022-10-01T03:40:24.392Z,972.24
2022-10-01T03:41:24.465Z,972.21
2022-10-01T03:42:24.392Z,972.22
2022-10-01T03:43:24.372Z,972.24
2022-10-01T03:44:24.361Z,972.21
2022-10-01T03:45:24.379Z,972.21
2022-10-01T03:46:24.332Z,972.19
2022-10-01T03:47:24.355Z,972.18
2022-10-01T03:48:24.313Z,972.23
2022-10-01T03:49:24.304Z,972.23
2022-10-01T03:50:24.298Z,972.20
2022-10-01T03:51:24.292Z,972.13
2022-10-01T03:52:24.286Z,972.16
2022-10-01T03:53:24.263Z,972.05
2022-10-01T03:54:24.254Z,972.16
2022-10-01T03:55:24.244Z,972.20
2022-10-01T03:56:24.235Z,972.11
2022-10-01T03:57:24.232Z,972.16
2022-10-01T03:58:24.219Z,972.08
2022-10-01T03:59:24.207Z,972.11
2022-10-01T04:00:24.190Z,972.10
2022-10-01T04:01:24.346Z,972.05
2022-10-01T04:02:24.304Z,972.20
2022-10-01T04:03:24.162Z,972.11
2022-10-01T04:04:24.156Z,972.13
2022-10-01T04:05:24.143Z,972.13
2022-10-01T04:06:24.131Z,972.09
2022-10-01T04:07:24.132Z,972.20
2022-10-01T04:08:24.596Z,972.18
2022-10-01T04:09:25.101Z,972.12
2022-10-01T04:10:24.085Z,972.16
2022-10-01T04:11:24.080Z,972.12
2022-10-01T04:12:24.081Z,972.15
2022-10-01T04:13:24.058Z,972.16
2022-10-01T04:14:24.049Z,972.07
2022-10-01T04:15:24.038Z,972.04
2022-10-01T04:16:24.069Z,972.09
2022-10-01T04:17:24.035Z,972.16
2022-10-01T04:18:24.006Z,972.16
2022-10-01T04:19:23.998Z,972.08
2022-10-01T04:20:24.012Z,972.15
2022-10-01T04:21:23.983Z,972.02
2022-10-01T04:22:23.986Z,972.16
2022-10-01T04:23:23.959Z,972.06
2022-10-01T04:24:23.948Z,972.05
2022-10-01T04:25:23.939Z,972.00
2022-10-01T04:26:23.931Z,972.01
2022-10-01T04:27:23.932Z,972.07
2022-10-01T04:28:23.941Z,972.07
2022-10-01T04:29:23.899Z,971.99
2022-10-01T04:30:23.895Z,972.06
2022-10-01T04:31:23.930Z,971.97
2022-10-01T04:32:23.883Z,971.89
2022-10-01T04:33:23.860Z,972.01
2022-10-01T04:34:23.849Z,972.03
2022-10-01T04:35:23.840Z,971.94
2022-10-01T04:36:23.830Z,971.93
2022-10-01T04:37:23.835Z,971.89
2022-10-01T04:38:23.810Z,971.89
2022-10-01T04:39:23.799Z,971.85
2022-10-01T04:40:23.788Z,971.91
2022-10-01T04:41:23.789Z,971.89
2022-10-01T04:42:23.785Z,971.83
2022-10-01T04:43:23.759Z,971.82
2022-10-01T04:44:23.745Z,971.86
2022-10-01T04:45:23.742Z,971.85
2022-10-01T04:46:23.774Z,971.77
2022-10-01T04:47:23.759Z,971.69
2022-10-01T04:48:23.714Z,971.81
2022-10-01T04:49:23.701Z,971.74
2022-10-01T04:50:23.687Z,971.81
2022-10-01T04:51:23.679Z,971.77
2022-10-01T04:52:23.681Z,971.82
2022-10-01T04:53:23.662Z,971.72
2022-10-01T04:54:23.663Z,971.71
2022-10-01T04:55:23.642Z,971.71
2022-10-01T04:56:23.631Z,971.66
2022-10-01T04:57:23.639Z,971.78
2022-10-01T04:58:23.610Z,971.73
2022-10-01T04:59:23.597Z,971.75
2022-10-01T05:00:23.589Z,971.75
2022-10-01T05:01:23.665Z,971.78
2022-10-01T05:02:23.655Z,971.79
2022-10-01T05:03:23.561Z,971.77
2022-10-01T05:04:23.543Z,971.70
2022-10-01T05:05:23.535Z,971.70
2022-10-01T05:06:23.522Z,971.67
2022-10-01T05:07:23.526Z,971.68
2022-10-01T05:08:23.503Z,971.62
2022-10-01T05:09:23.496Z,971.65
2022-10-01T05:10:23.486Z,971.62
2022-10-01T05:11:23.481Z,971.51
2022-10-01T05:12:24.667Z,971.55
2022-10-01T05:13:24.460Z,971.52
2022-10-01T05:14:23.445Z,971.47
2022-10-01T05:15:23.433Z,971.44
2022-10-01T05:16:23.501Z,971.49
2022-10-01T05:17:23.423Z,971.52
2022-10-01T05:18:23.403Z,971.46
2022-10-01T05:19:27.381Z,971.51
2022-10-01T05:20:24.383Z,971.43
2022-10-01T05:21:23.433Z,971.41
2022-10-01T05:22:23.378Z,971.39
2022-10-01T05:23:23.353Z,971.40
2022-10-01T05:24:23.344Z,971.30
2022-10-01T05:25:23.330Z,971.40
2022-10-01T05:26:23.324Z,971.39
2022-10-01T05:27:23.318Z,971.35
2022-10-01T05:28:23.370Z,971.34
2022-10-01T05:29:23.288Z,971.28
2022-10-01T05:30:23.296Z,971.37
2022-10-01T05:31:23.315Z,971.41
2022-10-01T05:32:23.272Z,971.24
2022-10-01T05:33:23.249Z,971.33
2022-10-01T05:34:23.236Z,971.17
2022-10-01T05:35:23.228Z,971.18
2022-10-01T05:36:23.231Z,971.18
2022-10-01T05:37:23.279Z,971.13
2022-10-01T05:38:23.199Z,971.07
2022-10-01T05:39:23.187Z,971.14
2022-10-01T05:40:23.184Z,971.11
2022-10-01T05:41:23.171Z,971.07
2022-10-01T05:42:23.171Z,971.12
2022-10-01T05:43:23.147Z,971.07
2022-10-01T05:44:23.138Z,971.07
2022-10-01T05:45:23.292Z,971.05
2022-10-01T05:46:23.117Z,970.98
2022-10-01T05:47:23.117Z,970.97
2022-10-01T05:48:23.101Z,970.78
2022-10-01T05:49:23.087Z,970.93
2022-10-01T05:50:23.074Z,970.89
2022-10-01T05:51:23.064Z,970.83
2022-10-01T05:52:23.064Z,970.86
2022-10-01T05:53:23.042Z,970.79
2022-10-01T05:54:23.033Z,970.77
2022-10-01T05:55:23.026Z,970.71
2022-10-01T05:56:23.014Z,970.66
2022-10-01T05:57:23.014Z,970.66
2022-10-01T05:58:22.994Z,970.66
2022-10-01T05:59:22.992Z,970.59
2022-10-01T06:00:22.996Z,970.62
2022-10-01T06:01:22.970Z,970.60
2022-10-01T06:02:23.092Z,970.71
2022-10-01T06:03:23.053Z,970.50
2022-10-01T06:04:22.937Z,970.50
2022-10-01T06:05:22.934Z,970.43
2022-10-01T06:06:22.922Z,970.34
2022-10-01T06:07:22.917Z,970.40
2022-10-01T06:08:22.900Z,970.35
2022-10-01T06:09:22.892Z,970.37
2022-10-01T06:10:22.877Z,970.31
2022-10-01T06:11:22.864Z,970.37
2022-10-01T06:12:22.869Z,970.31
2022-10-01T06:13:22.844Z,970.30
2022-10-01T06:14:22.833Z,970.33
2022-10-01T06:15:22.869Z,970.36
2022-10-01T06:16:22.840Z,970.13
2022-10-01T06:17:22.822Z,970.25
2022-10-01T06:18:22.797Z,970.24
2022-10-01T06:19:22.786Z,970.20
2022-10-01T06:20:22.778Z,970.16
2022-10-01T06:21:22.770Z,970.20
2022-10-01T06:22:22.772Z,969.98
2022-10-01T06:23:22.745Z,969.98
2022-10-01T06:24:22.732Z,969.99
2022-10-01T06:25:23.733Z,969.89
2022-10-01T06:26:22.729Z,969.98
2022-10-01T06:27:22.725Z,970.00
2022-10-01T06:28:22.789Z,970.06
2022-10-01T06:29:22.694Z,970.16
2022-10-01T06:30:22.682Z,970.00
2022-10-01T06:31:22.706Z,970.02
2022-10-01T06:32:22.676Z,970.01
2022-10-01T06:33:22.654Z,970.07
2022-10-01T06:34:22.641Z,970.06
2022-10-01T06:35:22.640Z,970.03
2022-10-01T06:36:22.624Z,970.08
2022-10-01T06:37:22.628Z,970.08
2022-10-01T06:38:22.602Z,970.11
2022-10-01T06:39:22.594Z,970.00
2022-10-01T06:40:22.583Z,970.03
2022-10-01T06:41:22.575Z,970.01
2022-10-01T06:42:22.573Z,970.04
2022-10-01T06:43:22.554Z,970.12
2022-10-01T06:44:22.543Z,970.19
2022-10-01T06:45:22.534Z,970.04
2022-10-01T06:46:22.606Z,970.09
2022-10-01T06:47:22.524Z,970.11
2022-10-01T06:48:22.513Z,970.15
2022-10-01T06:49:22.492Z,970.13
2022-10-01T06:50:22.485Z,970.13
2022-10-01T06:51:22.472Z,970.11
2022-10-01T06:52:22.476Z,970.19
2022-10-01T06:53:22.467Z,970.22
2022-10-01T06:54:22.469Z,970.25
2022-10-01T06:55:22.438Z,970.29
2022-10-01T06:56:22.424Z,970.30
2022-10-01T06:57:22.427Z,970.28
2022-10-01T06:58:22.411Z,970.35
2022-10-01T06:59:22.394Z,970.31
2022-10-01T07:00:22.382Z,970.33
2022-10-01T07:01:22.410Z,970.22
2022-10-01T07:02:22.427Z,970.29
2022-10-01T07:03:22.361Z,970.17
2022-10-01T07:04:22.338Z,970.04
2022-10-01T07:05:22.330Z,970.05
2022-10-01T07:06:22.328Z,970.04
2022-10-01T07:07:22.321Z,970.08
2022-10-01T07:08:22.303Z,969.97
2022-10-01T07:09:22.291Z,970.12
2022-10-01T07:10:22.285Z,970.02
2022-10-01T07:11:22.270Z,969.97
2022-10-01T07:12:22.275Z,969.95
2022-10-01T07:13:22.251Z,969.93
2022-10-01T07:14:22.243Z,969.89
2022-10-01T07:15:22.228Z,969.88
2022-10-01T07:16:22.258Z,969.73
2022-10-01T07:17:22.218Z,969.92
2022-10-01T07:18:22.193Z,969.89
2022-10-01T07:19:22.188Z,969.97
2022-10-01T07:20:22.177Z,969.91
2022-10-01T07:21:22.164Z,969.83
2022-10-01T07:22:22.164Z,969.82
2022-10-01T07:23:22.159Z,969.86
2022-10-01T07:24:22.137Z,969.94
2022-10-01T07:25:22.123Z,969.97
2022-10-01T07:26:22.119Z,969.90
2022-10-01T07:27:22.116Z,969.98
2022-10-01T07:28:22.143Z,969.93
2022-10-01T07:29:22.095Z,969.96
2022-10-01T07:30:22.075Z,969.92
2022-10-01T07:31:22.108Z,969.98
2022-10-01T07:32:22.063Z,970.04
2022-10-01T07:33:22.040Z,969.99
2022-10-01T07:34:22.034Z,970.01
2022-10-01T07:35:22.025Z,970.00
2022-10-01T07:36:22.012Z,970.02
2022-10-01T07:37:22.013Z,969.92
2022-10-01T07:38:21.990Z,969.99
2022-10-01T07:39:21.985Z,970.04
2022-10-01T07:40:21.975Z,970.11
2022-10-01T07:41:21.961Z,970.14
2022-10-01T07:42:21.966Z,970.09
2022-10-01T07:43:21.944Z,970.15
2022-10-01T07:44:21.932Z,970.11
2022-10-01T07:45:21.924Z,970.10
2022-10-01T07:46:22.024Z,970.08
2022-10-01T07:47:21.913Z,970.15
2022-10-01T07:48:21.917Z,970.18
2022-10-01T07:49:21.888Z,970.18
2022-10-01T07:50:21.871Z,970.10
2022-10-01T07:51:21.864Z,970.18
2022-10-01T07:52:21.867Z,970.10
2022-10-01T07:53:21.845Z,970.09
2022-10-01T07:54:21.829Z,970.03
2022-10-01T07:55:21.839Z,970.18
2022-10-01T07:56:21.810Z,970.12
2022-10-01T07:57:21.813Z,970.13
2022-10-01T07:58:21.796Z,970.08
2022-10-01T07:59:21.787Z,970.14
2022-10-01T08:00:21.774Z,970.20
2022-10-01T08:01:21.811Z,970.15
2022-10-01T08:02:21.788Z,970.20
2022-10-01T08:03:21.747Z,970.24
2022-10-01T08:04:21.736Z,970.19
2022-10-01T08:05:21.733Z,970.16
2022-10-01T08:06:25.316Z,970.10
2022-10-01T08:07:22.717Z,970.15
2022-10-01T08:08:21.695Z,970.16
2022-10-01T08:09:21.686Z,970.11
2022-10-01T08:10:21.675Z,970.14
2022-10-01T08:11:21.675Z,970.13
2022-10-01T08:12:21.664Z,970.16
2022-10-01T08:13:21.643Z,970.16
2022-10-01T08:14:21.628Z,970.14
2022-10-01T08:15:21.625Z,970.27
2022-10-01T08:16:21.691Z,970.13
2022-10-01T08:17:24.016Z,970.12
2022-10-01T08:18:21.589Z,970.26
2022-10-01T08:19:21.579Z,970.31
2022-10-01T08:20:21.578Z,970.19
2022-10-01T08:21:21.559Z,970.24
2022-10-01T08:22:21.557Z,970.23
2022-10-01T08:23:21.537Z,970.32
2022-10-01T08:24:21.533Z,970.27
2022-10-01T08:25:21.517Z,970.38
2022-10-01T08:26:21.508Z,970.35
2022-10-01T08:27:21.510Z,970.32
2022-10-01T08:28:21.515Z,970.32
2022-10-01T08:29:21.475Z,970.32
2022-10-01T08:30:21.515Z,970.36
2022-10-01T08:31:21.469Z,970.33
2022-10-01T08:32:21.469Z,970.32
2022-10-01T08:33:21.517Z,970.43
2022-10-01T08:34:21.421Z,970.46
2022-10-01T08:35:21.418Z,970.36
2022-10-01T08:36:21.415Z,970.44
2022-10-01T08:37:21.409Z,970.49
2022-10-01T08:38:21.385Z,970.48
2022-10-01T08:39:21.376Z,970.40
2022-10-01T08:40:21.365Z,970.47
2022-10-01T08:41:23.208Z,970.44
2022-10-01T08:42:22.353Z,970.47
2022-10-01T08:43:21.334Z,970.47
2022-10-01T08:44:21.325Z,970.49
2022-10-01T08:45:21.313Z,970.47
2022-10-01T08:46:21.332Z,970.53
2022-10-01T08:47:21.293Z,970.49
2022-10-01T08:48:21.296Z,970.55
2022-10-01T08:49:21.271Z,970.56
2022-10-01T08:50:21.263Z,970.48
2022-10-01T08:51:21.256Z,970.42
2022-10-01T08:52:21.255Z,970.49
2022-10-01T08:53:21.236Z,970.43
2022-10-01T08:54:21.222Z,970.48
2022-10-01T08:55:21.217Z,970.50
2022-10-01T08:56:21.204Z,970.51
2022-10-01T08:57:21.189Z,970.52
2022-10-01T08:58:21.194Z,970.47
2022-10-01T08:59:25.274Z,970.45
2022-10-01T09:00:23.168Z,970.42
2022-10-01T09:01:21.193Z,970.41
2022-10-01T09:02:21.141Z,970.51
2022-10-01T09:03:21.144Z,970.40
2022-10-01T09:04:21.163Z,970.50
2022-10-01T09:05:21.111Z,970.52
2022-10-01T09:06:21.101Z,970.52
2022-10-01T09:07:21.095Z,970.46
2022-10-01T09:08:21.092Z,970.58
2022-10-01T09:09:21.069Z,970.49
2022-10-01T09:10:21.055Z,970.53
2022-10-01T09:11:21.051Z,970.52
2022-10-01T09:12:21.041Z,970.51
2022-10-01T09:13:21.041Z,970.61
2022-10-01T09:14:21.012Z,970.57
2022-10-01T09:15:21.003Z,970.62
2022-10-01T09:16:21.063Z,970.61
2022-10-01T09:17:20.983Z,970.59
2022-10-01T09:18:20.986Z,970.65
2022-10-01T09:19:20.962Z,970.67
2022-10-01T09:20:20.957Z,970.62
2022-10-01T09:21:20.951Z,970.62
2022-10-01T09:22:20.937Z,970.61
2022-10-01T09:23:20.938Z,970.56
2022-10-01T09:24:20.915Z,970.60
2022-10-01T09:25:20.907Z,970.54
2022-10-01T09:26:25.557Z,970.59
2022-10-01T09:27:21.884Z,970.65
2022-10-01T09:28:21.116Z,970.59
2022-10-01T09:29:20.862Z,970.56
2022-10-01T09:30:20.852Z,970.54
2022-10-01T09:31:20.899Z,970.59
2022-10-01T09:32:20.847Z,970.57
2022-10-01T09:33:20.835Z,970.54
2022-10-01T09:34:20.819Z,970.54
2022-10-01T09:35:20.804Z,970.60
2022-10-01T09:36:20.806Z,970.60
2022-10-01T09:37:20.796Z,970.54
2022-10-01T09:38:20.776Z,970.61
2022-10-01T09:39:20.779Z,970.54
2022-10-01T09:40:20.749Z,970.55
2022-10-01T09:41:20.740Z,970.49
2022-10-01T09:42:20.740Z,970.43
2022-10-01T09:43:20.720Z,970.53
2022-10-01T09:44:20.713Z,970.37
2022-10-01T09:45:20.697Z,970.43
2022-10-01T09:46:20.722Z,970.37
2022-10-01T09:47:20.708Z,970.41
2022-10-01T09:48:20.669Z,970.40
2022-10-01T09:49:20.660Z,970.47
2022-10-01T09:50:20.650Z,970.48
2022-10-01T09:51:20.642Z,970.48
2022-10-01T09:52:20.645Z,970.52
2022-10-01T09:53:20.617Z,970.57
2022-10-01T09:54:20.610Z,970.59
2022-10-01T09:55:20.596Z,970.50
2022-10-01T09:56:20.591Z,970.56
2022-10-01T09:57:20.588Z,970.62
2022-10-01T09:58:20.567Z,970.49
2022-10-01T09:59:20.560Z,970.55
2022-10-01T10:00:20.546Z,970.62
2022-10-01T10:01:20.549Z,970.53
2022-10-01T10:02:20.652Z,970.60
2022-10-01T10:03:20.652Z,970.61
2022-10-01T10:04:20.510Z,970.66
2022-10-01T10:05:20.501Z,970.66
2022-10-01T10:06:20.489Z,970.66
2022-10-01T10:07:20.490Z,970.68
2022-10-01T10:08:20.469Z,970.69
2022-10-01T10:09:20.458Z,970.72
2022-10-01T10:10:25.327Z,970.64
2022-10-01T10:11:22.451Z,970.74
2022-10-01T10:12:20.437Z,970.72
2022-10-01T10:13:20.419Z,970.76
2022-10-01T10:14:20.410Z,970.79
2022-10-01T10:15:20.403Z,970.74
2022-10-01T10:16:20.467Z,970.69
2022-10-01T10:17:20.390Z,970.73
2022-10-01T10:18:23.790Z,970.78
2022-10-01T10:19:21.355Z,970.79
2022-10-01T10:20:20.349Z,970.78
2022-10-01T10:21:20.336Z,970.74
2022-10-01T10:22:20.335Z,970.77
2022-10-01T10:23:20.314Z,970.78
2022-10-01T10:24:20.317Z,970.82
2022-10-01T10:25:20.302Z,970.75
2022-10-01T10:26:20.298Z,970.79
2022-10-01T10:27:20.282Z,970.79
2022-10-01T10:28:20.319Z,970.72
2022-10-01T10:29:20.252Z,970.78
2022-10-01T10:30:20.244Z,970.89
2022-10-01T10:31:20.320Z,970.76
2022-10-01T10:32:20.233Z,970.75
2022-10-01T10:33:20.211Z,970.79
2022-10-01T10:34:20.207Z,970.80
2022-10-01T10:35:20.193Z,970.80
2022-10-01T10:36:20.182Z,970.81
2022-10-01T10:37:20.180Z,970.84
2022-10-01T10:38:20.165Z,970.84
2022-10-01T10:39:20.152Z,970.82
2022-10-01T10:40:20.164Z,970.86
2022-10-01T10:41:20.134Z,970.84
2022-10-01T10:42:20.148Z,970.79
2022-10-01T10:43:20.111Z,970.83
2022-10-01T10:44:20.099Z,970.77
2022-10-01T10:45:20.107Z,970.81
2022-10-01T10:46:20.119Z,970.83
2022-10-01T10:47:20.088Z,970.86
2022-10-01T10:48:20.062Z,970.89
2022-10-01T10:49:20.053Z,970.86
2022-10-01T10:50:20.041Z,970.89
2022-10-01T10:51:20.028Z,970.87
2022-10-01T10:52:20.043Z,970.90
2022-10-01T10:53:20.009Z,970.91
2022-10-01T10:54:19.997Z,970.96
2022-10-01T10:55:19.988Z,970.95
2022-10-01T10:56:19.978Z,970.96
2022-10-01T10:57:19.969Z,970.99
2022-10-01T10:58:19.976Z,970.89
2022-10-01T10:59:19.951Z,970.94
2022-10-01T11:00:19.936Z,970.94
2022-10-01T11:01:19.948Z,971.00
2022-10-01T11:02:19.955Z,970.95
2022-10-01T11:03:19.921Z,970.99
2022-10-01T11:04:19.894Z,970.98
2022-10-01T11:05:19.887Z,970.97
2022-10-01T11:06:19.880Z,971.02
2022-10-01T11:07:19.867Z,970.94
2022-10-01T11:08:19.869Z,970.98
2022-10-01T11:09:19.849Z,970.95
2022-10-01T11:10:19.838Z,970.92
2022-10-01T11:11:19.825Z,970.92
2022-10-01T11:12:19.845Z,970.93
2022-10-01T11:13:19.806Z,970.86
2022-10-01T11:14:23.438Z,970.95
2022-10-01T11:15:20.785Z,970.98
2022-10-01T11:16:19.801Z,970.95
2022-10-01T11:17:19.775Z,970.97
2022-10-01T11:18:19.753Z,970.97
2022-10-01T11:19:19.742Z,970.94
2022-10-01T11:20:21.047Z,970.99
2022-10-01T11:21:20.715Z,971.06
2022-10-01T11:22:20.721Z,971.00
2022-10-01T11:23:19.699Z,971.04
2022-10-01T11:24:19.686Z,971.00
2022-10-01T11:25:19.679Z,971.07
2022-10-01T11:26:19.680Z,971.05
2022-10-01T11:27:19.682Z,971.00
2022-10-01T11:28:19.714Z,970.99
2022-10-01T11:29:19.647Z,971.05
2022-10-01T11:30:19.664Z,971.03
2022-10-01T11:31:19.673Z,971.04
2022-10-01T11:32:19.682Z,971.12
2022-10-01T11:33:19.602Z,971.00
2022-10-01T11:34:19.587Z,970.97
2022-10-01T11:35:19.577Z,970.99
2022-10-01T11:36:19.567Z,971.05
2022-10-01T11:37:19.574Z,971.02
2022-10-01T11:38:19.549Z,971.03
2022-10-01T11:39:19.543Z,971.10
2022-10-01T11:40:19.529Z,971.07
2022-10-01T11:41:19.524Z,971.09
2022-10-01T11:42:19.576Z,971.04
2022-10-01T11:43:19.512Z,971.10
2022-10-01T11:44:19.511Z,971.02
2022-10-01T11:45:19.480Z,971.07
2022-10-01T11:46:19.576Z,971.03
2022-10-01T11:47:19.462Z,970.98
2022-10-01T11:48:19.464Z,970.94
2022-10-01T11:49:19.444Z,970.95
2022-10-01T11:50:19.442Z,971.03
2022-10-01T11:51:19.429Z,971.02
2022-10-01T11:52:19.415Z,971.06
2022-10-01T11:53:19.425Z,971.04
2022-10-01T11:54:19.388Z,971.02
2022-10-01T11:55:20.386Z,971.02
2022-10-01T11:56:19.372Z,971.04
2022-10-01T11:57:19.366Z,971.00
2022-10-01T11:58:19.377Z,971.07
2022-10-01T11:59:19.344Z,971.01
2022-10-01T12:00:20.053Z,970.98
2022-10-01T12:01:19.323Z,971.03
2022-10-01T12:02:19.342Z,971.00
2022-10-01T12:03:19.315Z,971.05
2022-10-01T12:04:19.297Z,971.04
2022-10-01T12:05:19.305Z,971.03
2022-10-01T12:06:23.180Z,971.08
2022-10-01T12:07:21.262Z,971.11
2022-10-01T12:08:19.261Z,971.07
2022-10-01T12:09:19.249Z,971.10
2022-10-01T12:10:19.231Z,971.13
2022-10-01T12:11:19.222Z,971.06
2022-10-01T12:12:19.214Z,971.14
2022-10-01T12:13:19.211Z,971.12
2022-10-01T12:14:19.190Z,971.16
2022-10-01T12:15:19.184Z,971.19
2022-10-01T12:16:19.220Z,971.20
2022-10-01T12:17:19.158Z,971.16
2022-10-01T12:18:19.164Z,971.14
2022-10-01T12:19:19.139Z,971.16
2022-10-01T12:20:19.135Z,971.16
2022-10-01T12:21:19.119Z,971.15
2022-10-01T12:22:23.614Z,971.23
2022-10-01T12:23:21.115Z,971.20
2022-10-01T12:24:19.092Z,971.18
2022-10-01T12:25:19.086Z,971.19
2022-10-01T12:26:19.075Z,971.22
2022-10-01T12:27:19.063Z,971.18
2022-10-01T12:28:19.135Z,971.17